Airfield :
LOGIN :

Register | Disclaimer

   EN    FR    IT 

 










Legend :    VFR   Marginal VFR   IFR   Intensive IFR   Very Intensive IFR
Visi :
Ceiling :
>= 8 km
>= 3000ft
5 to 8 km
1000 to 3000 ft
1500m to 5 km
500 to 1000 ft
800 to 1500m
200 to 500 ft
< 800m
< 200 ft
Symbols :   Thunderstorms  Fog  Heavy snow  Heavy precipitations  Wind > 20 kt
SIGMETs :     Misc.  Thunderstorms  Icing  Turbulence  Mountain Waves  Volcanic Ashes






- Airport Elevation : 659 ft
- IATA code : LYN


LFLY - Lyon Bron

CURRENT METAR :
  • 220500Z AUTO 35002KT 5000 BR NSC M02/M03 Q1033 NOSIG

EXPIRED METARs :
  • 220430Z AUTO 00000KT 6000 NSC M02/M04 Q1033 TEMPO 4000 BR
  • 220400Z AUTO 08001KT 6000 NSC M02/M03 Q1033 TEMPO 4000 BR
  • 220330Z AUTO 12002KT 6000 NSC M01/M03 Q1033 TEMPO 4000 BR
  • 220300Z AUTO 14001KT 7000 NSC M01/M02 Q1034 TEMPO 4000 BR
  • 220230Z AUTO 00000KT 8000 NSC M01/M02 Q1034 TEMPO 4000 BR

TAF TAF LFLY
Valid from the 22 at 00:00 until the 23 at 00:00 UTC


212300Z 2200/2224 VRB02KT CAVOK
PROB30
TEMPO 2204/2207 4000 BR
ATIS : +33 4 72 15 87 96



MET'MAP, your aeronautical weather chart ! - Copyright ORBIFLY December 2007 - Disclaimer

ORBIFLY MET'MAP TEAM :

Programming & Development : Alexandra Zaïnal
Concept & original design : Baudouin d'Aumeries
Assistance for programming : Marc-Olivier Méhu
Technical & hardware support : Manuel Goepfert

Contact : metmap@orbifly.com




SOURCES & CREDITS :

   NOAA